createdAt,value
2018-11-29T00:02:25.800Z,25.75
2018-11-29T00:04:53.935Z,31.02
2018-11-29T00:07:22.119Z,28.90
2018-11-29T00:09:50.282Z,28.95
2018-11-29T00:12:18.427Z,33.45
2018-11-29T00:14:46.589Z,30.57
2018-11-29T00:17:14.711Z,28.73
2018-11-29T00:19:42.901Z,31.23
2018-11-29T00:22:11.051Z,29.00
2018-11-29T00:24:39.194Z,29.77
2018-11-29T00:27:07.329Z,29.72
2018-11-29T00:29:35.471Z,29.50
2018-11-29T00:32:03.627Z,28.38
2018-11-29T00:34:31.775Z,30.05
2018-11-29T00:36:59.937Z,28.60
2018-11-29T00:39:28.149Z,31.87
2018-11-29T00:41:56.330Z,29.65
2018-11-29T00:44:24.471Z,30.43
2018-11-29T00:46:52.763Z,29.20
2018-11-29T00:49:20.925Z,30.50
2018-11-29T00:51:49.063Z,32.20
2018-11-29T00:54:17.187Z,30.17
2018-11-29T00:56:45.346Z,32.33
2018-11-29T00:59:13.452Z,30.30
2018-11-29T01:02:13.375Z,31.25
2018-11-29T01:04:41.488Z,29.57
2018-11-29T01:07:09.590Z,29.72
2018-11-29T01:09:37.826Z,29.25
2018-11-29T01:12:06.406Z,30.90
2018-11-29T01:14:34.561Z,28.45
2018-11-29T01:17:02.749Z,29.70
2018-11-29T01:19:30.868Z,31.82
2018-11-29T01:21:58.997Z,29.18
2018-11-29T01:24:27.241Z,32.78
2018-11-29T01:26:55.423Z,29.77
2018-11-29T01:29:23.741Z,29.70
2018-11-29T01:31:51.865Z,31.48
2018-11-29T01:34:20.075Z,30.92
2018-11-29T01:36:48.236Z,29.15
2018-11-29T01:39:16.405Z,29.98
2018-11-29T01:41:44.507Z,28.50
2018-11-29T01:44:12.623Z,31.52
2018-11-29T01:46:40.829Z,31.00
2018-11-29T01:49:09.007Z,31.68
2018-11-29T01:51:37.303Z,26.82
2018-11-29T01:54:05.479Z,28.05
2018-11-29T01:56:33.653Z,28.95
2018-11-29T01:59:01.831Z,27.10
2018-11-29T02:01:29.971Z,29.40
2018-11-29T02:03:58.155Z,27.95
2018-11-29T02:06:26.312Z,27.80
2018-11-29T02:08:54.517Z,30.70
2018-11-29T02:11:22.653Z,26.77
2018-11-29T02:13:50.939Z,28.50
2018-11-29T02:16:19.143Z,27.62
2018-11-29T02:18:47.251Z,28.92
2018-11-29T02:21:15.436Z,26.48
2018-11-29T02:23:43.588Z,27.67
2018-11-29T02:26:11.697Z,27.07
2018-11-29T02:28:43.216Z,24.75
2018-11-29T02:31:11.391Z,27.15
2018-11-29T02:33:39.530Z,26.27
2018-11-29T02:36:07.624Z,26.90
2018-11-29T02:38:36.109Z,26.27
2018-11-29T02:41:04.541Z,25.68
2018-11-29T02:43:32.654Z,24.47
2018-11-29T02:46:00.831Z,27.75
2018-11-29T02:48:29.029Z,25.17
2018-11-29T02:50:57.346Z,23.18
2018-11-29T02:53:25.457Z,26.95
2018-11-29T02:55:53.872Z,25.12
2018-11-29T02:58:22.088Z,25.82
2018-11-29T03:00:50.275Z,26.00
2018-11-29T03:03:18.419Z,27.05
2018-11-29T03:05:46.543Z,25.57
2018-11-29T03:08:14.759Z,25.60
2018-11-29T03:10:42.968Z,26.12
2018-11-29T03:13:11.061Z,26.05
2018-11-29T03:15:39.151Z,24.67
2018-11-29T03:18:07.334Z,26.52
2018-11-29T03:20:35.543Z,24.50
2018-11-29T03:23:03.731Z,25.00
2018-11-29T03:25:31.847Z,26.42
2018-11-29T03:27:59.984Z,26.30
2018-11-29T03:30:28.156Z,25.62
2018-11-29T03:32:56.262Z,27.07
2018-11-29T03:35:24.447Z,24.82
2018-11-29T03:37:52.536Z,24.65
2018-11-29T03:40:20.699Z,24.80
2018-11-29T03:42:48.886Z,25.20
2018-11-29T03:45:17.281Z,25.60
2018-11-29T03:47:45.775Z,25.85
2018-11-29T03:50:14.950Z,23.40
2018-11-29T03:52:43.047Z,23.73
2018-11-29T03:55:11.504Z,24.77
2018-11-29T03:57:39.971Z,24.32
2018-11-29T04:00:10.497Z,23.18
2018-11-29T04:02:38.782Z,29.92
2018-11-29T04:05:07.009Z,24.40
2018-11-29T04:07:35.098Z,22.77
2018-11-29T04:10:03.305Z,23.45
2018-11-29T04:12:31.510Z,22.22
2018-11-29T04:14:59.849Z,25.82
2018-11-29T04:17:28.117Z,23.45
2018-11-29T04:19:56.381Z,23.18
2018-11-29T04:22:24.559Z,23.65
2018-11-29T04:24:52.705Z,22.90
2018-11-29T04:27:20.978Z,23.85
2018-11-29T04:29:49.184Z,23.65
2018-11-29T04:32:17.525Z,22.85
2018-11-29T04:34:45.623Z,23.15
2018-11-29T04:37:13.753Z,22.40
2018-11-29T04:39:43.516Z,22.13
2018-11-29T04:42:11.763Z,22.62
2018-11-29T04:44:39.906Z,24.37
2018-11-29T04:47:08.064Z,22.58
2018-11-29T04:49:36.187Z,23.73
2018-11-29T04:52:04.642Z,22.60
2018-11-29T04:54:32.761Z,23.55
2018-11-29T04:57:01.018Z,21.80
2018-11-29T04:59:29.176Z,23.35
2018-11-29T05:01:57.302Z,20.25
2018-11-29T05:04:25.417Z,22.27
2018-11-29T05:06:53.727Z,22.48
2018-11-29T05:09:21.865Z,23.18
2018-11-29T05:11:50.186Z,22.30
2018-11-29T05:14:18.400Z,22.90
2018-11-29T05:16:46.541Z,22.00
2018-11-29T05:19:14.926Z,24.67
2018-11-29T05:21:43.067Z,24.55
2018-11-29T05:24:11.232Z,23.10
2018-11-29T05:26:39.453Z,21.57
2018-11-29T05:29:07.579Z,22.20
2018-11-29T05:31:35.724Z,22.35
2018-11-29T05:34:03.883Z,22.42
2018-11-29T05:36:32.031Z,24.90
2018-11-29T05:39:00.192Z,22.07
2018-11-29T05:41:28.434Z,22.55
2018-11-29T05:43:56.584Z,19.48
2018-11-29T05:46:24.727Z,22.30
2018-11-29T05:48:52.834Z,20.23
2018-11-29T05:51:20.954Z,21.82
2018-11-29T05:53:49.090Z,21.27
2018-11-29T05:56:17.272Z,20.15
2018-11-29T05:58:45.395Z,21.50
2018-11-29T06:01:45.020Z,19.48
2018-11-29T06:04:13.326Z,19.32
2018-11-29T06:06:41.455Z,20.25
2018-11-29T06:09:10.480Z,20.08
2018-11-29T06:11:39.660Z,19.12
2018-11-29T06:14:08.354Z,21.50
2018-11-29T06:16:37.417Z,19.62
2018-11-29T06:19:06.908Z,19.82
2018-11-29T06:21:35.044Z,19.87
2018-11-29T06:24:03.392Z,19.98
2018-11-29T06:26:31.576Z,19.15
2018-11-29T06:28:59.738Z,22.85
2018-11-29T06:31:27.978Z,20.02
2018-11-29T06:33:56.177Z,19.82
2018-11-29T06:36:24.310Z,18.77
2018-11-29T06:38:52.488Z,19.73
2018-11-29T06:41:20.674Z,20.97
2018-11-29T06:43:48.854Z,20.23
2018-11-29T06:46:17.076Z,19.05
2018-11-29T06:48:45.296Z,19.35
2018-11-29T06:51:13.460Z,19.67
2018-11-29T06:53:47.109Z,18.62
2018-11-29T06:56:15.244Z,18.85
2018-11-29T06:58:43.436Z,18.95
2018-11-29T07:01:11.596Z,18.95
2018-11-29T07:03:39.725Z,18.20
2018-11-29T07:06:07.965Z,17.23
2018-11-29T07:08:36.143Z,18.05
2018-11-29T07:11:04.437Z,19.00
2018-11-29T07:13:32.628Z,18.40
2018-11-29T07:16:00.884Z,19.37
2018-11-29T07:18:29.164Z,19.30
2018-11-29T07:21:08.606Z,18.30
2018-11-29T07:23:36.737Z,21.17
2018-11-29T07:26:05.100Z,19.45
2018-11-29T07:28:33.342Z,18.85
2018-11-29T07:31:01.490Z,18.23
2018-11-29T07:33:29.649Z,19.30
2018-11-29T07:35:57.796Z,18.40
2018-11-29T07:38:25.914Z,18.32
2018-11-29T07:40:54.448Z,18.82
2018-11-29T07:43:22.701Z,18.52
2018-11-29T07:45:50.875Z,18.92
2018-11-29T07:48:19.054Z,18.42
2018-11-29T07:50:47.243Z,16.95
2018-11-29T07:53:16.307Z,18.92
2018-11-29T07:55:43.720Z,19.37
2018-11-29T07:58:11.911Z,19.67
2018-11-29T08:00:40.095Z,19.75
2018-11-29T08:03:08.302Z,18.15
2018-11-29T08:05:36.502Z,15.78
2018-11-29T08:08:04.970Z,19.92
2018-11-29T08:10:33.205Z,17.55
2018-11-29T08:13:01.345Z,16.90
2018-11-29T08:15:29.685Z,17.42
2018-11-29T08:17:57.854Z,17.35
2018-11-29T08:20:26.040Z,17.57
2018-11-29T08:22:54.189Z,17.80
2018-11-29T08:25:22.337Z,17.67
2018-11-29T08:27:50.507Z,17.12
2018-11-29T08:30:18.659Z,17.98
2018-11-29T08:32:46.827Z,17.30
2018-11-29T08:35:15.809Z,19.02
2018-11-29T08:37:45.844Z,17.82
2018-11-29T08:40:21.355Z,17.82
2018-11-29T08:42:49.530Z,17.73
2018-11-29T08:45:17.803Z,18.25
2018-11-29T08:47:46.439Z,18.52
2018-11-29T08:50:15.387Z,16.87
2018-11-29T08:52:44.479Z,16.50
2018-11-29T08:55:13.848Z,18.52
2018-11-29T08:57:42.044Z,17.07
2018-11-29T09:00:13.612Z,17.15
2018-11-29T09:02:41.792Z,17.15
2018-11-29T09:05:10.894Z,16.50
2018-11-29T09:07:39.110Z,16.40
2018-11-29T09:10:12.182Z,16.40
2018-11-29T09:12:40.332Z,17.85
2018-11-29T09:15:11.690Z,17.75
2018-11-29T09:17:40.096Z,15.35
2018-11-29T09:20:12.623Z,16.23
2018-11-29T09:22:40.854Z,18.07
2018-11-29T09:25:13.171Z,17.17
2018-11-29T09:27:41.359Z,16.30
2018-11-29T09:30:15.850Z,17.50
2018-11-29T09:32:44.530Z,16.27
2018-11-29T09:35:12.813Z,16.12
2018-11-29T09:37:41.136Z,18.48
2018-11-29T09:40:12.268Z,17.02
2018-11-29T09:42:40.577Z,16.67
2018-11-29T09:45:11.333Z,16.02
2018-11-29T09:47:39.558Z,16.35
2018-11-29T09:50:10.226Z,17.60
2018-11-29T09:52:38.940Z,15.98
2018-11-29T09:55:07.852Z,16.57
2018-11-29T09:57:36.080Z,17.15
2018-11-29T10:00:06.340Z,16.52
2018-11-29T10:02:34.539Z,16.97
2018-11-29T10:05:02.765Z,17.32
2018-11-29T10:07:30.970Z,17.48
2018-11-29T10:09:59.202Z,16.87
2018-11-29T10:12:27.455Z,17.73
2018-11-29T10:14:55.568Z,15.78
2018-11-29T10:17:23.777Z,17.25
2018-11-29T10:19:51.914Z,16.80
2018-11-29T10:22:20.318Z,17.32
2018-11-29T10:24:48.581Z,15.55
2018-11-29T10:27:16.813Z,15.80
2018-11-29T10:29:44.977Z,16.42
2018-11-29T10:32:13.130Z,16.57
2018-11-29T10:34:41.326Z,16.52
2018-11-29T10:37:09.611Z,16.52
2018-11-29T10:39:38.063Z,15.40
2018-11-29T10:42:06.288Z,18.55
2018-11-29T10:44:34.398Z,16.12
2018-11-29T10:47:02.801Z,17.73
2018-11-29T10:49:31.138Z,15.45
2018-11-29T10:51:59.344Z,16.95
2018-11-29T10:54:27.514Z,16.70
2018-11-29T10:56:55.733Z,15.23
2018-11-29T10:59:23.871Z,16.02
2018-11-29T11:01:57.818Z,16.15
2018-11-29T11:04:26.033Z,16.97
2018-11-29T11:06:54.195Z,16.45
2018-11-29T11:09:22.326Z,15.63
2018-11-29T11:11:50.682Z,16.90
2018-11-29T11:14:18.793Z,14.03
2018-11-29T11:16:47.864Z,15.70
2018-11-29T11:19:16.071Z,16.23
2018-11-29T11:21:44.202Z,15.18
2018-11-29T11:24:12.363Z,29.72
2018-11-29T11:26:40.516Z,16.62
2018-11-29T11:29:08.675Z,15.78
2018-11-29T11:31:36.830Z,16.75
2018-11-29T11:34:05.228Z,16.67
2018-11-29T11:36:33.420Z,15.30
2018-11-29T11:39:01.582Z,15.43
2018-11-29T11:41:29.809Z,17.67
2018-11-29T11:43:58.146Z,16.10
2018-11-29T11:46:26.344Z,15.75
2018-11-29T11:48:54.590Z,16.42
2018-11-29T11:51:22.790Z,17.57
2018-11-29T11:53:50.974Z,15.43
2018-11-29T11:56:19.344Z,14.87
2018-11-29T11:58:47.593Z,16.60
2018-11-29T12:01:15.787Z,14.98
2018-11-29T12:03:43.967Z,15.53
2018-11-29T12:06:12.283Z,15.00
2018-11-29T12:08:40.528Z,15.43
2018-11-29T12:11:08.816Z,15.63
2018-11-29T12:13:37.055Z,14.75
2018-11-29T12:16:05.454Z,15.03
2018-11-29T12:18:33.728Z,16.55
2018-11-29T12:21:02.095Z,15.32
2018-11-29T12:23:30.352Z,17.80
2018-11-29T12:25:58.526Z,15.45
2018-11-29T12:28:26.652Z,13.48
2018-11-29T12:30:54.777Z,15.63
2018-11-29T12:33:23.514Z,14.80
2018-11-29T12:35:51.716Z,15.00
2018-11-29T12:38:19.997Z,13.22
2018-11-29T12:40:48.282Z,14.30
2018-11-29T12:43:16.645Z,15.98
2018-11-29T12:45:44.908Z,13.90
2018-11-29T12:48:13.114Z,14.45
2018-11-29T12:50:41.598Z,14.05
2018-11-29T12:53:09.736Z,14.00
2018-11-29T12:55:41.575Z,13.72
2018-11-29T12:58:09.778Z,15.55
2018-11-29T13:00:38.080Z,13.85
2018-11-29T13:05:38.161Z,15.90
2018-11-29T13:08:07.252Z,13.68
2018-11-29T13:10:35.412Z,14.53
2018-11-29T13:13:03.705Z,13.83
2018-11-29T13:15:33.353Z,13.38
2018-11-29T13:18:03.265Z,13.13
2018-11-29T13:20:32.576Z,14.03
2018-11-29T13:22:59.744Z,13.48
2018-11-29T13:25:28.459Z,13.10
2018-11-29T13:27:56.752Z,13.90
2018-11-29T13:30:25.007Z,14.65
2018-11-29T13:32:56.584Z,14.13
2018-11-29T13:35:27.198Z,13.93
2018-11-29T13:37:58.345Z,13.22
2018-11-29T13:40:26.910Z,12.65
2018-11-29T13:42:55.118Z,13.00
2018-11-29T13:45:23.369Z,13.45
2018-11-29T13:47:51.487Z,13.83
2018-11-29T13:50:19.637Z,13.15
2018-11-29T13:52:47.959Z,12.33
2018-11-29T13:55:16.904Z,12.50
2018-11-29T13:57:46.170Z,12.75
2018-11-29T14:00:20.289Z,12.63
2018-11-29T14:02:54.549Z,12.45
2018-11-29T14:05:22.700Z,12.43
2018-11-29T14:07:50.885Z,15.68
2018-11-29T14:10:20.329Z,11.80
2018-11-29T14:12:49.576Z,12.23
2018-11-29T14:15:18.962Z,13.32
2018-11-29T14:17:47.130Z,12.25
2018-11-29T14:20:15.518Z,12.63
2018-11-29T14:22:43.683Z,12.07
2018-11-29T14:25:13.641Z,14.25
2018-11-29T14:27:42.962Z,11.50
2018-11-29T14:30:27.856Z,13.35
2018-11-29T14:32:59.220Z,11.93
2018-11-29T14:35:27.441Z,12.78
2018-11-29T14:37:55.634Z,11.15
2018-11-29T14:40:25.306Z,12.10
2018-11-29T14:42:53.854Z,12.60
2018-11-29T14:45:24.671Z,12.47
2018-11-29T14:47:52.872Z,11.97
2018-11-29T14:50:24.487Z,13.40
2018-11-29T14:52:52.883Z,11.65
2018-11-29T14:55:22.602Z,14.75
2018-11-29T14:57:50.760Z,13.25
2018-11-29T15:00:18.902Z,12.25
2018-11-29T15:02:47.097Z,12.50
2018-11-29T15:05:16.837Z,13.32
2018-11-29T15:07:45.039Z,12.80
2018-11-29T15:10:13.219Z,17.57
2018-11-29T15:12:43.223Z,11.78
2018-11-29T15:15:12.309Z,13.53
2018-11-29T15:17:41.432Z,12.43
2018-11-29T15:20:21.108Z,12.75
2018-11-29T15:22:50.350Z,13.30
2018-11-29T15:25:18.454Z,12.88
2018-11-29T15:27:46.625Z,12.43
2018-11-29T15:30:16.391Z,12.98
2018-11-29T15:32:44.585Z,12.30
2018-11-29T15:35:13.555Z,12.78
2018-11-29T15:37:42.372Z,13.53
2018-11-29T15:40:14.510Z,14.75
2018-11-29T15:42:43.259Z,17.02
2018-11-29T15:45:14.364Z,13.40
2018-11-29T15:47:43.128Z,12.35
2018-11-29T15:50:15.091Z,14.10
2018-11-29T15:52:43.452Z,11.70
2018-11-29T15:55:14.564Z,12.90
2018-11-29T15:57:42.761Z,12.53
2018-11-29T16:00:14.391Z,13.35
2018-11-29T16:02:42.921Z,13.03
2018-11-29T16:05:11.115Z,13.08
2018-11-29T16:07:39.469Z,14.33
2018-11-29T16:10:09.500Z,11.70
2018-11-29T16:12:38.009Z,14.05
2018-11-29T16:15:08.430Z,13.40
2018-11-29T16:17:36.626Z,14.30
2018-11-29T16:20:10.207Z,12.98
2018-11-29T16:22:38.387Z,13.60
2018-11-29T16:25:09.286Z,12.78
2018-11-29T16:27:37.509Z,13.25
2018-11-29T16:30:13.735Z,13.22
2018-11-29T16:32:42.446Z,12.73
2018-11-29T16:35:10.627Z,14.25
2018-11-29T16:37:38.860Z,13.35
2018-11-29T16:40:08.652Z,14.00
2018-11-29T16:42:36.943Z,12.82
2018-11-29T16:45:09.013Z,13.03
2018-11-29T16:47:37.313Z,13.65
2018-11-29T16:50:07.091Z,15.55
2018-11-29T16:52:35.377Z,13.40
2018-11-29T16:55:03.599Z,13.13
2018-11-29T16:57:31.899Z,13.55
2018-11-29T17:00:00.086Z,13.95
2018-11-29T17:02:28.224Z,12.88
2018-11-29T17:04:56.451Z,14.75
2018-11-29T17:07:24.615Z,13.15
2018-11-29T17:09:52.874Z,12.60
2018-11-29T17:12:22.236Z,12.95
2018-11-29T17:14:51.634Z,13.70
2018-11-29T17:17:19.892Z,12.68
2018-11-29T17:19:48.076Z,13.10
2018-11-29T17:22:16.379Z,13.65
2018-11-29T17:24:44.577Z,13.45
2018-11-29T17:27:12.811Z,12.68
2018-11-29T17:29:41.050Z,12.33
2018-11-29T17:32:09.192Z,12.25
2018-11-29T17:34:37.307Z,12.93
2018-11-29T17:37:05.598Z,13.00
2018-11-29T17:39:33.848Z,13.18
2018-11-29T17:42:02.035Z,11.90
2018-11-29T17:44:30.224Z,12.53
2018-11-29T17:46:58.404Z,12.05
2018-11-29T17:49:27.471Z,12.40
2018-11-29T17:51:55.736Z,11.73
2018-11-29T17:54:23.880Z,12.07
2018-11-29T17:56:52.187Z,12.13
2018-11-29T17:59:20.394Z,12.78
2018-11-29T18:01:48.584Z,12.85
2018-11-29T18:04:17.033Z,12.70
2018-11-29T18:06:45.237Z,12.85
2018-11-29T18:09:13.594Z,12.40
2018-11-29T18:11:41.744Z,12.73
2018-11-29T18:14:09.966Z,10.48
2018-11-29T18:16:38.621Z,10.68
2018-11-29T18:19:06.832Z,10.18
2018-11-29T18:21:34.981Z,9.88
2018-11-29T18:24:03.120Z,12.58
2018-11-29T18:26:31.814Z,11.53
2018-11-29T18:28:59.545Z,10.75
2018-11-29T18:31:27.784Z,11.50
2018-11-29T18:33:56.041Z,10.60
2018-11-29T18:36:24.197Z,10.30
2018-11-29T18:38:52.427Z,9.90
2018-11-29T18:41:20.664Z,10.38
2018-11-29T18:43:48.980Z,10.18
2018-11-29T18:46:17.338Z,9.93
2018-11-29T18:48:45.592Z,9.88
2018-11-29T18:51:13.776Z,10.28
2018-11-29T18:53:41.971Z,10.75
2018-11-29T18:56:10.223Z,10.35
2018-11-29T18:58:38.378Z,9.58
2018-11-29T19:01:06.999Z,9.35
2018-11-29T19:03:35.294Z,9.68
2018-11-29T19:06:03.506Z,9.23
2018-11-29T19:08:31.669Z,9.00
2018-11-29T19:10:59.884Z,9.60
2018-11-29T19:13:28.106Z,8.88
2018-11-29T19:15:56.357Z,8.73
2018-11-29T19:18:24.659Z,10.18
2018-11-29T19:20:52.884Z,9.88
2018-11-29T19:23:21.819Z,9.28
2018-11-29T19:25:50.155Z,10.03
2018-11-29T19:28:18.421Z,9.80
2018-11-29T19:30:46.719Z,9.23
2018-11-29T19:33:18.127Z,9.48
2018-11-29T19:35:47.750Z,8.40
2018-11-29T19:38:15.943Z,8.45
2018-11-29T19:40:44.546Z,8.65
2018-11-29T19:43:12.850Z,9.25
2018-11-29T19:45:41.095Z,9.80
2018-11-29T19:48:09.862Z,9.80
2018-11-29T19:50:38.217Z,9.43
2018-11-29T19:53:09.291Z,9.70
2018-11-29T19:55:37.560Z,9.13
2018-11-29T19:58:06.820Z,9.23
2018-11-29T20:00:35.511Z,9.00
2018-11-29T20:03:03.768Z,9.38
2018-11-29T20:05:32.107Z,8.73
2018-11-29T20:08:00.376Z,9.93
2018-11-29T20:10:28.592Z,9.28
2018-11-29T20:13:02.106Z,8.88
2018-11-29T20:15:30.380Z,23.25
2018-11-29T20:17:58.955Z,10.18
2018-11-29T20:20:27.250Z,9.08
2018-11-29T20:22:56.561Z,7.92
2018-11-29T20:25:25.989Z,8.90
2018-11-29T20:27:54.293Z,8.58
2018-11-29T20:30:23.981Z,10.10
2018-11-29T20:32:54.270Z,8.98
2018-11-29T20:35:23.474Z,9.38
2018-11-29T20:37:52.877Z,8.88
2018-11-29T20:40:24.306Z,8.43
2018-11-29T20:42:53.822Z,10.48
2018-11-29T20:45:26.509Z,9.18
2018-11-29T20:47:54.733Z,8.85
2018-11-29T20:50:24.506Z,8.63
2018-11-29T20:52:54.857Z,9.08
2018-11-29T20:55:26.475Z,9.43
2018-11-29T20:57:55.189Z,8.73
2018-11-29T21:00:23.704Z,9.38
2018-11-29T21:02:52.051Z,10.13
2018-11-29T21:05:21.499Z,9.88
2018-11-29T21:07:51.913Z,9.85
2018-11-29T21:10:22.985Z,9.70
2018-11-29T21:12:51.210Z,10.40
2018-11-29T21:15:19.745Z,9.40
2018-11-29T21:17:48.151Z,9.58
2018-11-29T21:20:17.319Z,10.20
2018-11-29T21:22:46.937Z,10.18
2018-11-29T21:25:17.427Z,9.78
2018-11-29T21:27:46.271Z,9.70
2018-11-29T21:30:15.648Z,9.70
2018-11-29T21:32:44.059Z,10.18
2018-11-29T21:35:14.468Z,9.48
2018-11-29T21:37:43.526Z,10.28
2018-11-29T21:40:21.369Z,8.95
2018-11-29T21:42:49.646Z,10.20
2018-11-29T21:45:17.974Z,9.03
2018-11-29T21:47:46.218Z,9.98
2018-11-29T21:50:14.537Z,9.33
2018-11-29T21:52:42.744Z,10.90
2018-11-29T21:55:10.930Z,9.98
2018-11-29T21:57:39.605Z,9.58
2018-11-29T22:00:11.776Z,10.23
2018-11-29T22:02:41.771Z,10.45
2018-11-29T22:05:09.338Z,9.93
2018-11-29T22:07:37.500Z,10.25
2018-11-29T22:10:05.684Z,11.83
2018-11-29T22:12:33.895Z,11.20
2018-11-29T22:15:02.019Z,10.40
2018-11-29T22:17:30.189Z,10.13
2018-11-29T22:19:58.567Z,10.50
2018-11-29T22:22:28.383Z,10.38
2018-11-29T22:24:54.932Z,9.35
2018-11-29T22:27:23.092Z,10.43
2018-11-29T22:29:52.004Z,11.05
2018-11-29T22:32:20.198Z,10.15
2018-11-29T22:34:48.333Z,9.60
2018-11-29T22:37:16.536Z,10.10
2018-11-29T22:39:44.739Z,10.30
2018-11-29T22:42:12.849Z,11.20
2018-11-29T22:44:41.131Z,10.50
2018-11-29T22:47:09.268Z,13.48
2018-11-29T22:49:37.453Z,10.50
2018-11-29T22:52:05.845Z,11.60
2018-11-29T22:54:34.021Z,10.50
2018-11-29T22:57:02.234Z,10.43
2018-11-29T22:59:30.415Z,11.18
2018-11-29T23:01:58.580Z,9.35
2018-11-29T23:04:26.770Z,11.05
2018-11-29T23:06:54.965Z,9.48
2018-11-29T23:09:23.215Z,10.00
2018-11-29T23:11:51.365Z,9.65
2018-11-29T23:14:19.515Z,9.25
2018-11-29T23:16:47.682Z,9.40
2018-11-29T23:19:15.824Z,9.78
2018-11-29T23:21:44.028Z,9.70
2018-11-29T23:24:12.123Z,9.65
2018-11-29T23:26:40.305Z,9.78
2018-11-29T23:29:08.436Z,9.05
2018-11-29T23:31:36.741Z,10.53
2018-11-29T23:34:04.990Z,10.68
2018-11-29T23:36:33.251Z,10.32
2018-11-29T23:39:02.227Z,11.25
2018-11-29T23:41:30.469Z,9.70
2018-11-29T23:43:58.704Z,10.05
2018-11-29T23:46:26.862Z,9.00
2018-11-29T23:48:55.015Z,10.13
2018-11-29T23:51:24.033Z,8.78
2018-11-29T23:53:52.179Z,9.53
2018-11-29T23:56:20.333Z,9.85
2018-11-29T23:58:48.466Z,10.20
